DLH0325 EDDN-EDDG
Flight info
| Callsign | DLH0325 |
|---|---|
| Flight time | 0h 48m |
| Altitude | 30000 |
| Route | SULUS1C/10 SULUS L604 MASEK Z52 ARPEG Z850 HMM HMM1A |
| Aircraft | A320/M-SDE3FGHIRWY/LB1 |
Departure
| Time | 2026-04-28 15:11 |
|---|---|
| Airport | Nuremberg Airport (EDDN) |
Arrival
| Time | 2026-04-28 15:59 |
|---|---|
| Airport | Münster Osnabrück Airport (EDDG) |
| Time | Latitude | Longitude | Altitude | Speed | Heading |
|---|---|---|---|---|---|
| 2026-04-28 14:55 | 49.49539 | 11.07585 | 1049 ft | 0 kts | 188° |
| 2026-04-28 15:02 | 49.49544 | 11.07587 | 1050 ft | 2 kts | 188° |
| 2026-04-28 15:03 | 49.49559 | 11.07590 | 1050 ft | 2 kts | 188° |
| 2026-04-28 15:03 | 49.49569 | 11.07592 | 1050 ft | 2 kts | 184° |
| 2026-04-28 15:03 | 49.49584 | 11.07588 | 1050 ft | 2 kts | 156° |
| 2026-04-28 15:03 | 49.49596 | 11.07576 | 1050 ft | 2 kts | 133° |
| 2026-04-28 15:04 | 49.49605 | 11.07557 | 1050 ft | 2 kts | 111° |
| 2026-04-28 15:04 | 49.49607 | 11.07544 | 1050 ft | 1 kts | 97° |
| 2026-04-28 15:04 | 49.49608 | 11.07535 | 1050 ft | 0 kts | 96° |
| 2026-04-28 15:06 | 49.49608 | 11.07536 | 1049 ft | 0 kts | 96° |
| 2026-04-28 15:06 | 49.49606 | 11.07558 | 1050 ft | 7 kts | 96° |
| 2026-04-28 15:07 | 49.49597 | 11.07661 | 1050 ft | 10 kts | 97° |
| 2026-04-28 15:07 | 49.49615 | 11.07761 | 1049 ft | 10 kts | 21° |
| 2026-04-28 15:07 | 49.49681 | 11.07724 | 1050 ft | 11 kts | 296° |
| 2026-04-28 15:07 | 49.49697 | 11.07586 | 1049 ft | 17 kts | 278° |
| 2026-04-28 15:08 | 49.49726 | 11.07309 | 1049 ft | 28 kts | 279° |
| 2026-04-28 15:08 | 49.49755 | 11.07011 | 1049 ft | 27 kts | 278° |
| 2026-04-28 15:08 | 49.49784 | 11.06719 | 1049 ft | 27 kts | 278° |
| 2026-04-28 15:08 | 49.49812 | 11.06436 | 1049 ft | 26 kts | 277° |
| 2026-04-28 15:09 | 49.49838 | 11.06161 | 1049 ft | 25 kts | 278° |
| 2026-04-28 15:09 | 49.49884 | 11.05983 | 1049 ft | 16 kts | 331° |
| 2026-04-28 15:09 | 49.49991 | 11.05926 | 1049 ft | 16 kts | 0° |
| 2026-04-28 15:09 | 49.50046 | 11.05994 | 1049 ft | 16 kts | 79° |
| 2026-04-28 15:10 | 49.50047 | 11.06011 | 1049 ft | 0 kts | 91° |
| 2026-04-28 15:10 | 49.50039 | 11.06146 | 1049 ft | 43 kts | 94° |
| 2026-04-28 15:10 | 49.49955 | 11.06975 | 1050 ft | 111 kts | 99° |
| 2026-04-28 15:11 | 49.49802 | 11.08453 | 1058 ft | 164 kts | 97° |
| 2026-04-28 15:11 | 49.49606 | 11.10227 | 1581 ft | 169 kts | 95° |
| 2026-04-28 15:11 | 49.49438 | 11.11983 | 2251 ft | 168 kts | 95° |
| 2026-04-28 15:11 | 49.49273 | 11.13733 | 2920 ft | 169 kts | 95° |
| 2026-04-28 15:12 | 49.49104 | 11.15588 | 3295 ft | 182 kts | 92° |
| 2026-04-28 15:12 | 49.49100 | 11.17606 | 3641 ft | 196 kts | 83° |
| 2026-04-28 15:12 | 49.49373 | 11.19704 | 3988 ft | 211 kts | 63° |
| 2026-04-28 15:12 | 49.50357 | 11.21489 | 4280 ft | 231 kts | 39° |
| 2026-04-28 15:13 | 49.51689 | 11.23005 | 4807 ft | 244 kts | 36° |
| 2026-04-28 15:13 | 49.53112 | 11.24578 | 5275 ft | 259 kts | 37° |
| 2026-04-28 15:13 | 49.54558 | 11.26242 | 6008 ft | 263 kts | 38° |
| 2026-04-28 15:13 | 49.56012 | 11.27963 | 6814 ft | 266 kts | 38° |
| 2026-04-28 15:14 | 49.57484 | 11.29682 | 7544 ft | 270 kts | 33° |
| 2026-04-28 15:14 | 49.59246 | 11.30676 | 8216 ft | 278 kts | 7° |
| 2026-04-28 15:14 | 49.61183 | 11.30336 | 8929 ft | 286 kts | 342° |
| 2026-04-28 15:14 | 49.62955 | 11.28967 | 9660 ft | 291 kts | 333° |
| 2026-04-28 15:15 | 49.64722 | 11.27449 | 10409 ft | 295 kts | 333° |
| 2026-04-28 15:15 | 49.65941 | 11.26406 | 10802 ft | 302 kts | 333° |
| 2026-04-28 15:15 | 49.68467 | 11.24258 | 11318 ft | 324 kts | 332° |
| 2026-04-28 15:15 | 49.70483 | 11.22549 | 11864 ft | 334 kts | 332° |
| 2026-04-28 15:16 | 49.72531 | 11.20813 | 12629 ft | 336 kts | 332° |
| 2026-04-28 15:16 | 49.74565 | 11.19089 | 13387 ft | 337 kts | 331° |
| 2026-04-28 15:16 | 49.76635 | 11.17336 | 14118 ft | 339 kts | 331° |
| 2026-04-28 15:16 | 49.78708 | 11.15578 | 14835 ft | 341 kts | 330° |
| 2026-04-28 15:17 | 49.80781 | 11.13818 | 15522 ft | 342 kts | 330° |
| 2026-04-28 15:17 | 49.82824 | 11.11928 | 16171 ft | 345 kts | 325° |
| 2026-04-28 15:17 | 49.84733 | 11.09682 | 16817 ft | 347 kts | 318° |
| 2026-04-28 15:17 | 49.86466 | 11.07112 | 17470 ft | 348 kts | 314° |
| 2026-04-28 15:18 | 49.88162 | 11.04391 | 18099 ft | 350 kts | 313° |
| 2026-04-28 15:18 | 49.89835 | 11.01671 | 18679 ft | 353 kts | 313° |
| 2026-04-28 15:18 | 49.91527 | 10.98925 | 19084 ft | 354 kts | 313° |
| 2026-04-28 15:18 | 49.93227 | 10.96171 | 19191 ft | 354 kts | 313° |
| 2026-04-28 15:19 | 49.94936 | 10.93399 | 19389 ft | 358 kts | 313° |
| 2026-04-28 15:19 | 49.96667 | 10.90591 | 19962 ft | 358 kts | 313° |
| 2026-04-28 15:19 | 49.98386 | 10.87798 | 20555 ft | 358 kts | 313° |
| 2026-04-28 15:19 | 50.00108 | 10.84999 | 21018 ft | 362 kts | 313° |
| 2026-04-28 15:20 | 50.01868 | 10.82133 | 21488 ft | 366 kts | 313° |
| 2026-04-28 15:20 | 50.03624 | 10.79268 | 21986 ft | 369 kts | 313° |
| 2026-04-28 15:20 | 50.05387 | 10.76390 | 22478 ft | 370 kts | 313° |
| 2026-04-28 15:20 | 50.07151 | 10.73508 | 22943 ft | 373 kts | 313° |
| 2026-04-28 15:21 | 50.08946 | 10.70575 | 23406 ft | 376 kts | 313° |
| 2026-04-28 15:21 | 50.10757 | 10.67617 | 23868 ft | 378 kts | 313° |
| 2026-04-28 15:21 | 50.12565 | 10.64658 | 24322 ft | 380 kts | 313° |
| 2026-04-28 15:21 | 50.14400 | 10.61651 | 24770 ft | 382 kts | 313° |
| 2026-04-28 15:22 | 50.16024 | 10.58987 | 25156 ft | 384 kts | 312° |
| 2026-04-28 15:22 | 50.17875 | 10.55946 | 25587 ft | 387 kts | 312° |
| 2026-04-28 15:22 | 50.19740 | 10.52875 | 26013 ft | 389 kts | 312° |
| 2026-04-28 15:22 | 50.21602 | 10.49804 | 26435 ft | 391 kts | 312° |
| 2026-04-28 15:23 | 50.23487 | 10.46717 | 26836 ft | 393 kts | 313° |
| 2026-04-28 15:23 | 50.25409 | 10.43633 | 27220 ft | 395 kts | 313° |
| 2026-04-28 15:23 | 50.27329 | 10.40558 | 27584 ft | 397 kts | 313° |
| 2026-04-28 15:23 | 50.29247 | 10.37478 | 27950 ft | 399 kts | 313° |
| 2026-04-28 15:24 | 50.31191 | 10.34348 | 28314 ft | 401 kts | 312° |
| 2026-04-28 15:24 | 50.33148 | 10.31189 | 28677 ft | 403 kts | 312° |
| 2026-04-28 15:24 | 50.35072 | 10.27992 | 29022 ft | 404 kts | 310° |
| 2026-04-28 15:24 | 50.36932 | 10.24646 | 29361 ft | 406 kts | 309° |
| 2026-04-28 15:25 | 50.38835 | 10.21353 | 29622 ft | 409 kts | 311° |
| 2026-04-28 15:25 | 50.40541 | 10.18541 | 30013 ft | 410 kts | 311° |
| 2026-04-28 15:25 | 50.42542 | 10.15275 | 30241 ft | 412 kts | 311° |
| 2026-04-28 15:26 | 50.46463 | 10.08730 | 30292 ft | 409 kts | 310° |
| 2026-04-28 15:26 | 50.50279 | 10.02174 | 30204 ft | 408 kts | 310° |
| 2026-04-28 15:27 | 50.54092 | 9.95601 | 30152 ft | 407 kts | 309° |
| 2026-04-28 15:27 | 50.57744 | 9.88767 | 30148 ft | 407 kts | 308° |
| 2026-04-28 15:28 | 50.61356 | 9.81905 | 30173 ft | 409 kts | 308° |
| 2026-04-28 15:28 | 50.64959 | 9.75050 | 30204 ft | 409 kts | 308° |
| 2026-04-28 15:29 | 50.68605 | 9.68101 | 30209 ft | 409 kts | 308° |
| 2026-04-28 15:29 | 50.71796 | 9.60740 | 30206 ft | 408 kts | 297° |
| 2026-04-28 15:30 | 50.73877 | 9.52467 | 30203 ft | 408 kts | 285° |
| 2026-04-28 15:30 | 50.75137 | 9.43713 | 30200 ft | 408 kts | 282° |
| 2026-04-28 15:31 | 50.76315 | 9.34992 | 30199 ft | 409 kts | 282° |
| 2026-04-28 15:31 | 50.77499 | 9.26190 | 30199 ft | 410 kts | 282° |
| 2026-04-28 15:32 | 50.78682 | 9.17360 | 30198 ft | 411 kts | 282° |
| 2026-04-28 15:32 | 50.79855 | 9.08555 | 30199 ft | 411 kts | 282° |
| 2026-04-28 15:33 | 50.81023 | 8.99733 | 30201 ft | 412 kts | 282° |
| 2026-04-28 15:33 | 50.82388 | 8.91195 | 30202 ft | 412 kts | 288° |
| 2026-04-28 15:34 | 50.84450 | 8.82845 | 30203 ft | 413 kts | 295° |
| 2026-04-28 15:34 | 50.87075 | 8.74758 | 30205 ft | 413 kts | 297° |
| 2026-04-28 15:35 | 50.89760 | 8.66714 | 30208 ft | 413 kts | 297° |
| 2026-04-28 15:35 | 50.93768 | 8.54643 | 30212 ft | 414 kts | 297° |
| 2026-04-28 15:36 | 50.96441 | 8.46548 | 30210 ft | 415 kts | 297° |
| 2026-04-28 15:36 | 50.99090 | 8.38496 | 29833 ft | 414 kts | 297° |
| 2026-04-28 15:37 | 51.00498 | 8.34536 | 29360 ft | 412 kts | 303° |
| 2026-04-28 15:37 | 51.02313 | 8.31062 | 28861 ft | 410 kts | 314° |
| 2026-04-28 15:37 | 51.04488 | 8.28209 | 28360 ft | 409 kts | 324° |
| 2026-04-28 15:37 | 51.06115 | 8.26623 | 28026 ft | 407 kts | 328° |
| 2026-04-28 15:38 | 51.09399 | 8.23703 | 27388 ft | 403 kts | 329° |
| 2026-04-28 15:38 | 51.11843 | 8.21556 | 26619 ft | 399 kts | 329° |
| 2026-04-28 15:38 | 51.14253 | 8.19424 | 26135 ft | 394 kts | 329° |
| 2026-04-28 15:38 | 51.16661 | 8.17286 | 25645 ft | 392 kts | 329° |
| 2026-04-28 15:39 | 51.19017 | 8.15185 | 25227 ft | 390 kts | 329° |
| 2026-04-28 15:39 | 51.21354 | 8.13099 | 24810 ft | 388 kts | 330° |
| 2026-04-28 15:39 | 51.23681 | 8.11017 | 24362 ft | 385 kts | 330° |
| 2026-04-28 15:39 | 51.25939 | 8.08995 | 23910 ft | 382 kts | 330° |
| 2026-04-28 15:40 | 51.28196 | 8.06825 | 23382 ft | 379 kts | 323° |
| 2026-04-28 15:40 | 51.30251 | 8.04142 | 22779 ft | 378 kts | 319° |
| 2026-04-28 15:40 | 51.32231 | 8.01331 | 22134 ft | 377 kts | 318° |
| 2026-04-28 15:40 | 51.34227 | 7.98492 | 21463 ft | 375 kts | 319° |
| 2026-04-28 15:41 | 51.36189 | 7.95732 | 20801 ft | 376 kts | 319° |
| 2026-04-28 15:41 | 51.38176 | 7.92962 | 20127 ft | 376 kts | 319° |
| 2026-04-28 15:41 | 51.40159 | 7.90214 | 19459 ft | 375 kts | 319° |
| 2026-04-28 15:41 | 51.42131 | 7.87488 | 18848 ft | 373 kts | 319° |
| 2026-04-28 15:42 | 51.44082 | 7.84795 | 18296 ft | 369 kts | 320° |
| 2026-04-28 15:42 | 51.45961 | 7.82202 | 17797 ft | 365 kts | 320° |
| 2026-04-28 15:42 | 51.47756 | 7.79724 | 17338 ft | 360 kts | 320° |
| 2026-04-28 15:42 | 51.49646 | 7.77111 | 16864 ft | 356 kts | 320° |
| 2026-04-28 15:43 | 51.51510 | 7.74533 | 16409 ft | 351 kts | 320° |
| 2026-04-28 15:43 | 51.53338 | 7.72001 | 15954 ft | 347 kts | 320° |
| 2026-04-28 15:43 | 51.55164 | 7.69468 | 15487 ft | 345 kts | 320° |
| 2026-04-28 15:43 | 51.56986 | 7.66939 | 15016 ft | 343 kts | 320° |
| 2026-04-28 15:44 | 51.58791 | 7.64431 | 14544 ft | 340 kts | 320° |
| 2026-04-28 15:44 | 51.60565 | 7.61961 | 14081 ft | 338 kts | 320° |
| 2026-04-28 15:44 | 51.62327 | 7.59506 | 13625 ft | 336 kts | 320° |
| 2026-04-28 15:44 | 51.64072 | 7.57072 | 13173 ft | 332 kts | 320° |
| 2026-04-28 15:45 | 51.65820 | 7.54639 | 12725 ft | 330 kts | 320° |
| 2026-04-28 15:45 | 51.67537 | 7.52248 | 12283 ft | 328 kts | 320° |
| 2026-04-28 15:45 | 51.69262 | 7.49841 | 11838 ft | 324 kts | 320° |
| 2026-04-28 15:45 | 51.70944 | 7.47492 | 11403 ft | 321 kts | 320° |
| 2026-04-28 15:46 | 51.72628 | 7.45130 | 10968 ft | 318 kts | 320° |
| 2026-04-28 15:46 | 51.74271 | 7.42823 | 10614 ft | 312 kts | 320° |
| 2026-04-28 15:46 | 51.75872 | 7.40574 | 10474 ft | 298 kts | 320° |
| 2026-04-28 15:46 | 51.77402 | 7.38420 | 10344 ft | 284 kts | 320° |
| 2026-04-28 15:47 | 51.78866 | 7.36358 | 10227 ft | 277 kts | 321° |
| 2026-04-28 15:47 | 51.80322 | 7.34311 | 9922 ft | 277 kts | 320° |
| 2026-04-28 15:47 | 51.81776 | 7.32261 | 9574 ft | 275 kts | 320° |
| 2026-04-28 15:47 | 51.83231 | 7.30210 | 9235 ft | 272 kts | 320° |
| 2026-04-28 15:48 | 51.84660 | 7.28196 | 8906 ft | 270 kts | 320° |
| 2026-04-28 15:48 | 51.86076 | 7.26202 | 8586 ft | 268 kts | 321° |
| 2026-04-28 15:48 | 51.87470 | 7.24241 | 8272 ft | 267 kts | 321° |
| 2026-04-28 15:48 | 51.88872 | 7.22257 | 7958 ft | 265 kts | 321° |
| 2026-04-28 15:49 | 51.90264 | 7.20285 | 7650 ft | 264 kts | 321° |
| 2026-04-28 15:49 | 51.91627 | 7.18353 | 7348 ft | 263 kts | 321° |
| 2026-04-28 15:49 | 51.93012 | 7.16389 | 7041 ft | 261 kts | 321° |
| 2026-04-28 15:49 | 51.94386 | 7.14442 | 6739 ft | 259 kts | 321° |
| 2026-04-28 15:50 | 51.95831 | 7.12806 | 6406 ft | 254 kts | 343° |
| 2026-04-28 15:50 | 51.97547 | 7.12443 | 6102 ft | 244 kts | 12° |
| 2026-04-28 15:50 | 51.99102 | 7.13377 | 5811 ft | 236 kts | 37° |
| 2026-04-28 15:50 | 52.00400 | 7.14980 | 5532 ft | 234 kts | 40° |
| 2026-04-28 15:51 | 52.01650 | 7.16676 | 5231 ft | 232 kts | 48° |
| 2026-04-28 15:51 | 52.02609 | 7.18717 | 4947 ft | 228 kts | 61° |
| 2026-04-28 15:51 | 52.03291 | 7.21027 | 4677 ft | 226 kts | 67° |
| 2026-04-28 15:51 | 52.03892 | 7.23344 | 4421 ft | 224 kts | 68° |
| 2026-04-28 15:52 | 52.04449 | 7.25657 | 4335 ft | 212 kts | 69° |
| 2026-04-28 15:52 | 52.04941 | 7.27837 | 4287 ft | 200 kts | 70° |
| 2026-04-28 15:52 | 52.05389 | 7.29903 | 4230 ft | 185 kts | 71° |
| 2026-04-28 15:52 | 52.05798 | 7.31846 | 4199 ft | 180 kts | 71° |
| 2026-04-28 15:53 | 52.06198 | 7.33770 | 4221 ft | 178 kts | 71° |
| 2026-04-28 15:53 | 52.06574 | 7.35586 | 4108 ft | 163 kts | 71° |
| 2026-04-28 15:53 | 52.06920 | 7.37266 | 3871 ft | 151 kts | 71° |
| 2026-04-28 15:53 | 52.07239 | 7.38815 | 3674 ft | 137 kts | 71° |
| 2026-04-28 15:54 | 52.07533 | 7.40240 | 3495 ft | 132 kts | 71° |
| 2026-04-28 15:54 | 52.07824 | 7.41641 | 3322 ft | 131 kts | 72° |
| 2026-04-28 15:54 | 52.08112 | 7.43038 | 3150 ft | 130 kts | 71° |
| 2026-04-28 15:54 | 52.08402 | 7.44429 | 2979 ft | 130 kts | 71° |
| 2026-04-28 15:55 | 52.08691 | 7.45809 | 2828 ft | 130 kts | 71° |
| 2026-04-28 15:55 | 52.08980 | 7.47207 | 2679 ft | 129 kts | 71° |
| 2026-04-28 15:55 | 52.09267 | 7.48583 | 2532 ft | 129 kts | 71° |
| 2026-04-28 15:55 | 52.09557 | 7.49967 | 2379 ft | 128 kts | 71° |
| 2026-04-28 15:56 | 52.09843 | 7.51332 | 2209 ft | 128 kts | 71° |
| 2026-04-28 15:56 | 52.10129 | 7.52686 | 2030 ft | 128 kts | 71° |
| 2026-04-28 15:56 | 52.10423 | 7.54085 | 1844 ft | 127 kts | 71° |
| 2026-04-28 15:56 | 52.10707 | 7.55435 | 1667 ft | 127 kts | 71° |
| 2026-04-28 15:57 | 52.10991 | 7.56789 | 1496 ft | 126 kts | 71° |
| 2026-04-28 15:57 | 52.11245 | 7.58001 | 1321 ft | 127 kts | 70° |
| 2026-04-28 15:57 | 52.11537 | 7.59381 | 1118 ft | 126 kts | 69° |
| 2026-04-28 15:57 | 52.11830 | 7.60737 | 941 ft | 126 kts | 69° |
| 2026-04-28 15:58 | 52.12107 | 7.62087 | 785 ft | 126 kts | 68° |
| 2026-04-28 15:58 | 52.12394 | 7.63443 | 630 ft | 127 kts | 69° |
| 2026-04-28 15:58 | 52.12677 | 7.64828 | 473 ft | 128 kts | 68° |
| 2026-04-28 15:58 | 52.12956 | 7.66104 | 310 ft | 130 kts | 68° |
| 2026-04-28 15:59 | 52.13250 | 7.67505 | 170 ft | 129 kts | 69° |
| 2026-04-28 15:59 | 52.13397 | 7.68180 | 168 ft | 109 kts | 70° |
| 2026-04-28 15:59 | 52.13598 | 7.69111 | 168 ft | 55 kts | 72° |
| 2026-04-28 15:59 | 52.13710 | 7.69621 | 168 ft | 43 kts | 72° |
| 2026-04-28 16:00 | 52.13742 | 7.69983 | 168 ft | 25 kts | 137° |
| 2026-04-28 16:00 | 52.13600 | 7.69953 | 168 ft | 23 kts | 242° |
| 2026-04-28 16:00 | 52.13549 | 7.69728 | 168 ft | 0 kts | 251° |